sensor_id;sensor_type;location;lat;lon;timestamp;P1;durP1;ratioP1;P2;durP2;ratioP2
9128;SDS011;4599;50.906;6.786;2023-04-24T00:01:04;1.27;;;0.90;;
9128;SDS011;4599;50.906;6.786;2023-04-24T00:05:08;3.07;;;1.20;;
9128;SDS011;4599;50.906;6.786;2023-04-24T00:09:10;2.63;;;0.80;;
9128;SDS011;4599;50.906;6.786;2023-04-24T00:13:11;1.50;;;0.83;;
9128;SDS011;4599;50.906;6.786;2023-04-24T00:17:13;1.67;;;1.10;;
9128;SDS011;4599;50.906;6.786;2023-04-24T00:21:16;1.00;;;1.00;;
9128;SDS011;4599;50.906;6.786;2023-04-24T00:25:17;2.23;;;1.10;;
9128;SDS011;4599;50.906;6.786;2023-04-24T00:29:19;1.90;;;0.97;;
9128;SDS011;4599;50.906;6.786;2023-04-24T00:33:20;1.43;;;1.10;;
9128;SDS011;4599;50.906;6.786;2023-04-24T00:37:23;2.77;;;1.20;;
9128;SDS011;4599;50.906;6.786;2023-04-24T00:41:25;1.63;;;1.07;;
9128;SDS011;4599;50.906;6.786;2023-04-24T00:45:26;3.17;;;1.30;;
9128;SDS011;4599;50.906;6.786;2023-04-24T00:49:28;1.03;;;0.93;;
9128;SDS011;4599;50.906;6.786;2023-04-24T00:53:31;1.03;;;0.93;;
9128;SDS011;4599;50.906;6.786;2023-04-24T00:57:32;1.53;;;1.00;;
9128;SDS011;4599;50.906;6.786;2023-04-24T01:01:34;2.23;;;1.23;;
9128;SDS011;4599;50.906;6.786;2023-04-24T01:05:36;2.27;;;1.20;;
9128;SDS011;4599;50.906;6.786;2023-04-24T01:09:40;1.60;;;1.30;;
9128;SDS011;4599;50.906;6.786;2023-04-24T01:13:42;2.57;;;1.23;;
9128;SDS011;4599;50.906;6.786;2023-04-24T01:17:44;1.70;;;1.60;;
9128;SDS011;4599;50.906;6.786;2023-04-24T01:21:46;2.90;;;2.40;;
9128;SDS011;4599;50.906;6.786;2023-04-24T01:25:53;3.57;;;2.50;;
9128;SDS011;4599;50.906;6.786;2023-04-24T01:29:54;4.13;;;2.73;;
9128;SDS011;4599;50.906;6.786;2023-04-24T01:33:56;5.23;;;2.80;;
9128;SDS011;4599;50.906;6.786;2023-04-24T01:37:58;4.93;;;2.80;;
9128;SDS011;4599;50.906;6.786;2023-04-24T01:42:01;3.40;;;2.60;;
9128;SDS011;4599;50.906;6.786;2023-04-24T01:46:03;4.97;;;3.00;;
9128;SDS011;4599;50.906;6.786;2023-04-24T01:50:05;4.17;;;2.50;;
9128;SDS011;4599;50.906;6.786;2023-04-24T01:54:07;3.83;;;3.10;;
9128;SDS011;4599;50.906;6.786;2023-04-24T01:58:10;4.07;;;3.00;;
9128;SDS011;4599;50.906;6.786;2023-04-24T02:02:12;5.97;;;3.50;;
9128;SDS011;4599;50.906;6.786;2023-04-24T02:06:13;4.00;;;3.33;;
9128;SDS011;4599;50.906;6.786;2023-04-24T02:10:15;8.23;;;3.60;;
9128;SDS011;4599;50.906;6.786;2023-04-24T02:14:18;7.33;;;3.70;;
9128;SDS011;4599;50.906;6.786;2023-04-24T02:18:19;7.07;;;4.03;;
9128;SDS011;4599;50.906;6.786;2023-04-24T02:22:21;7.73;;;3.80;;
9128;SDS011;4599;50.906;6.786;2023-04-24T02:26:22;5.90;;;4.10;;
9128;SDS011;4599;50.906;6.786;2023-04-24T02:30:25;5.07;;;3.80;;
9128;SDS011;4599;50.906;6.786;2023-04-24T02:34:26;5.90;;;4.17;;
9128;SDS011;4599;50.906;6.786;2023-04-24T02:38:28;4.90;;;4.10;;
9128;SDS011;4599;50.906;6.786;2023-04-24T02:42:30;4.97;;;4.03;;
9128;SDS011;4599;50.906;6.786;2023-04-24T02:46:32;6.30;;;4.43;;
9128;SDS011;4599;50.906;6.786;2023-04-24T02:50:34;5.37;;;4.33;;
9128;SDS011;4599;50.906;6.786;2023-04-24T02:54:36;5.43;;;4.40;;
9128;SDS011;4599;50.906;6.786;2023-04-24T02:58:37;5.70;;;4.27;;
9128;SDS011;4599;50.906;6.786;2023-04-24T03:02:40;7.47;;;4.90;;
9128;SDS011;4599;50.906;6.786;2023-04-24T03:06:42;5.87;;;4.50;;
9128;SDS011;4599;50.906;6.786;2023-04-24T03:10:44;5.80;;;4.83;;
9128;SDS011;4599;50.906;6.786;2023-04-24T03:14:48;7.60;;;5.23;;
9128;SDS011;4599;50.906;6.786;2023-04-24T03:18:51;5.60;;;5.00;;
9128;SDS011;4599;50.906;6.786;2023-04-24T03:22:53;5.90;;;4.80;;
9128;SDS011;4599;50.906;6.786;2023-04-24T03:26:55;7.37;;;4.83;;
9128;SDS011;4599;50.906;6.786;2023-04-24T03:30:56;8.33;;;5.27;;
9128;SDS011;4599;50.906;6.786;2023-04-24T03:34:59;8.00;;;5.23;;
9128;SDS011;4599;50.906;6.786;2023-04-24T03:39:00;6.43;;;4.83;;
9128;SDS011;4599;50.906;6.786;2023-04-24T03:43:02;6.90;;;4.97;;
9128;SDS011;4599;50.906;6.786;2023-04-24T03:47:03;7.83;;;4.63;;
9128;SDS011;4599;50.906;6.786;2023-04-24T03:51:06;6.07;;;5.10;;
9128;SDS011;4599;50.906;6.786;2023-04-24T03:55:08;6.73;;;4.70;;
9128;SDS011;4599;50.906;6.786;2023-04-24T03:59:10;6.27;;;4.67;;
9128;SDS011;4599;50.906;6.786;2023-04-24T04:03:12;4.80;;;4.40;;
9128;SDS011;4599;50.906;6.786;2023-04-24T04:07:15;10.50;;;4.97;;
9128;SDS011;4599;50.906;6.786;2023-04-24T04:11:17;7.17;;;4.60;;
9128;SDS011;4599;50.906;6.786;2023-04-24T04:15:18;6.57;;;4.60;;
9128;SDS011;4599;50.906;6.786;2023-04-24T04:19:22;6.97;;;4.50;;
9128;SDS011;4599;50.906;6.786;2023-04-24T04:23:25;6.47;;;4.37;;
9128;SDS011;4599;50.906;6.786;2023-04-24T04:27:26;6.80;;;4.33;;
9128;SDS011;4599;50.906;6.786;2023-04-24T04:31:28;7.07;;;4.50;;
9128;SDS011;4599;50.906;6.786;2023-04-24T04:35:29;5.07;;;4.07;;
9128;SDS011;4599;50.906;6.786;2023-04-24T04:39:32;5.07;;;3.70;;
9128;SDS011;4599;50.906;6.786;2023-04-24T04:43:34;7.80;;;4.07;;
9128;SDS011;4599;50.906;6.786;2023-04-24T04:47:35;4.27;;;3.87;;
9128;SDS011;4599;50.906;6.786;2023-04-24T04:51:37;7.00;;;3.90;;
9128;SDS011;4599;50.906;6.786;2023-04-24T04:55:41;4.33;;;3.70;;
9128;SDS011;4599;50.906;6.786;2023-04-24T04:59:43;5.30;;;3.70;;
9128;SDS011;4599;50.906;6.786;2023-04-24T05:03:45;3.97;;;3.67;;
9128;SDS011;4599;50.906;6.786;2023-04-24T05:07:47;4.17;;;3.57;;
9128;SDS011;4599;50.906;6.786;2023-04-24T05:11:49;5.20;;;3.80;;
9128;SDS011;4599;50.906;6.786;2023-04-24T05:15:51;4.07;;;3.60;;
9128;SDS011;4599;50.906;6.786;2023-04-24T05:19:53;5.33;;;3.90;;
9128;SDS011;4599;50.906;6.786;2023-04-24T05:23:54;7.57;;;3.80;;
9128;SDS011;4599;50.906;6.786;2023-04-24T05:27:57;6.17;;;4.27;;
9128;SDS011;4599;50.906;6.786;2023-04-24T05:31:59;4.03;;;3.63;;
9128;SDS011;4599;50.906;6.786;2023-04-24T05:36:00;5.50;;;4.10;;
9128;SDS011;4599;50.906;6.786;2023-04-24T05:40:02;5.37;;;3.43;;
9128;SDS011;4599;50.906;6.786;2023-04-24T05:44:05;4.60;;;3.73;;
9128;SDS011;4599;50.906;6.786;2023-04-24T05:48:07;10.20;;;4.10;;
9128;SDS011;4599;50.906;6.786;2023-04-24T05:52:09;4.80;;;3.43;;
9128;SDS011;4599;50.906;6.786;2023-04-24T05:56:10;5.00;;;3.70;;
9128;SDS011;4599;50.906;6.786;2023-04-24T06:00:14;4.33;;;2.53;;
9128;SDS011;4599;50.906;6.786;2023-04-24T06:04:16;3.57;;;2.47;;
9128;SDS011;4599;50.906;6.786;2023-04-24T06:08:17;4.97;;;2.00;;
9128;SDS011;4599;50.906;6.786;2023-04-24T06:12:19;2.33;;;2.03;;
9128;SDS011;4599;50.906;6.786;2023-04-24T06:16:22;2.20;;;1.53;;
9128;SDS011;4599;50.906;6.786;2023-04-24T06:20:23;3.60;;;1.90;;
9128;SDS011;4599;50.906;6.786;2023-04-24T06:24:26;2.23;;;1.43;;
9128;SDS011;4599;50.906;6.786;2023-04-24T06:28:28;1.40;;;1.30;;
9128;SDS011;4599;50.906;6.786;2023-04-24T06:32:31;2.13;;;1.50;;
9128;SDS011;4599;50.906;6.786;2023-04-24T06:36:32;1.40;;;1.30;;
9128;SDS011;4599;50.906;6.786;2023-04-24T06:40:34;3.27;;;1.60;;
9128;SDS011;4599;50.906;6.786;2023-04-24T06:44:35;1.90;;;1.57;;
9128;SDS011;4599;50.906;6.786;2023-04-24T06:48:38;1.57;;;1.47;;
9128;SDS011;4599;50.906;6.786;2023-04-24T06:52:40;2.20;;;1.50;;
9128;SDS011;4599;50.906;6.786;2023-04-24T06:56:41;2.93;;;1.50;;
9128;SDS011;4599;50.906;6.786;2023-04-24T07:00:43;2.67;;;1.57;;
9128;SDS011;4599;50.906;6.786;2023-04-24T07:04:46;2.53;;;1.70;;
9128;SDS011;4599;50.906;6.786;2023-04-24T07:08:47;1.60;;;1.43;;
9128;SDS011;4599;50.906;6.786;2023-04-24T07:12:49;2.40;;;1.83;;
9128;SDS011;4599;50.906;6.786;2023-04-24T07:16:50;2.07;;;1.80;;
9128;SDS011;4599;50.906;6.786;2023-04-24T07:20:53;2.10;;;1.90;;
9128;SDS011;4599;50.906;6.786;2023-04-24T07:24:54;5.60;;;1.83;;
9128;SDS011;4599;50.906;6.786;2023-04-24T07:28:56;2.63;;;1.50;;
9128;SDS011;4599;50.906;6.786;2023-04-24T07:32:57;2.00;;;1.70;;
9128;SDS011;4599;50.906;6.786;2023-04-24T07:37:00;1.20;;;1.10;;
9128;SDS011;4599;50.906;6.786;2023-04-24T07:41:02;2.47;;;1.27;;
9128;SDS011;4599;50.906;6.786;2023-04-24T07:45:04;1.30;;;1.20;;
9128;SDS011;4599;50.906;6.786;2023-04-24T07:49:07;2.83;;;1.30;;
9128;SDS011;4599;50.906;6.786;2023-04-24T07:53:15;1.60;;;1.10;;
9128;SDS011;4599;50.906;6.786;2023-04-24T07:57:17;3.87;;;1.70;;
9128;SDS011;4599;50.906;6.786;2023-04-24T08:01:18;2.20;;;1.30;;
9128;SDS011;4599;50.906;6.786;2023-04-24T08:05:20;2.77;;;1.70;;
9128;SDS011;4599;50.906;6.786;2023-04-24T08:09:23;2.20;;;1.67;;
9128;SDS011;4599;50.906;6.786;2023-04-24T08:13:27;2.10;;;1.60;;
9128;SDS011;4599;50.906;6.786;2023-04-24T08:17:29;2.87;;;1.70;;
9128;SDS011;4599;50.906;6.786;2023-04-24T08:21:32;2.83;;;1.20;;
9128;SDS011;4599;50.906;6.786;2023-04-24T08:25:35;1.77;;;0.90;;
9128;SDS011;4599;50.906;6.786;2023-04-24T08:29:36;1.47;;;1.20;;
9128;SDS011;4599;50.906;6.786;2023-04-24T08:33:38;1.40;;;1.10;;
9128;SDS011;4599;50.906;6.786;2023-04-24T08:37:40;1.60;;;1.50;;
9128;SDS011;4599;50.906;6.786;2023-04-24T08:41:42;3.97;;;1.70;;
9128;SDS011;4599;50.906;6.786;2023-04-24T08:45:45;3.77;;;1.93;;
9128;SDS011;4599;50.906;6.786;2023-04-24T08:49:47;3.80;;;2.07;;
9128;SDS011;4599;50.906;6.786;2023-04-24T08:53:50;2.87;;;2.30;;
9128;SDS011;4599;50.906;6.786;2023-04-24T08:57:56;2.53;;;2.33;;
9128;SDS011;4599;50.906;6.786;2023-04-24T09:01:59;3.53;;;2.47;;
9128;SDS011;4599;50.906;6.786;2023-04-24T09:06:01;4.17;;;2.93;;
9128;SDS011;4599;50.906;6.786;2023-04-24T09:10:04;4.50;;;3.10;;
9128;SDS011;4599;50.906;6.786;2023-04-24T09:14:11;7.67;;;3.03;;
9128;SDS011;4599;50.906;6.786;2023-04-24T09:18:13;5.30;;;3.20;;
9128;SDS011;4599;50.906;6.786;2023-04-24T09:22:15;6.50;;;3.80;;
9128;SDS011;4599;50.906;6.786;2023-04-24T09:26:16;8.33;;;4.10;;
9128;SDS011;4599;50.906;6.786;2023-04-24T09:30:21;6.80;;;3.57;;
9128;SDS011;4599;50.906;6.786;2023-04-24T09:34:23;4.73;;;4.10;;
9128;SDS011;4599;50.906;6.786;2023-04-24T09:38:30;7.00;;;4.10;;
9128;SDS011;4599;50.906;6.786;2023-04-24T09:42:32;5.60;;;4.27;;
9128;SDS011;4599;50.906;6.786;2023-04-24T09:46:35;7.77;;;4.27;;
9128;SDS011;4599;50.906;6.786;2023-04-24T09:50:37;7.03;;;4.50;;
9128;SDS011;4599;50.906;6.786;2023-04-24T09:54:39;7.10;;;4.57;;
9128;SDS011;4599;50.906;6.786;2023-04-24T09:58:40;5.70;;;3.60;;
9128;SDS011;4599;50.906;6.786;2023-04-24T10:02:43;6.50;;;3.57;;
9128;SDS011;4599;50.906;6.786;2023-04-24T10:06:45;6.43;;;3.10;;
9128;SDS011;4599;50.906;6.786;2023-04-24T10:10:48;7.30;;;3.60;;
9128;SDS011;4599;50.906;6.786;2023-04-24T10:14:49;5.07;;;3.30;;
9128;SDS011;4599;50.906;6.786;2023-04-24T10:18:52;4.03;;;2.97;;
9128;SDS011;4599;50.906;6.786;2023-04-24T10:22:55;6.47;;;3.10;;
9128;SDS011;4599;50.906;6.786;2023-04-24T10:26:58;5.97;;;3.00;;
9128;SDS011;4599;50.906;6.786;2023-04-24T10:31:00;6.37;;;3.23;;
9128;SDS011;4599;50.906;6.786;2023-04-24T10:35:04;5.90;;;3.60;;
9128;SDS011;4599;50.906;6.786;2023-04-24T10:39:08;7.60;;;3.60;;
9128;SDS011;4599;50.906;6.786;2023-04-24T10:43:13;5.77;;;3.40;;
9128;SDS011;4599;50.906;6.786;2023-04-24T10:47:18;9.07;;;3.63;;
9128;SDS011;4599;50.906;6.786;2023-04-24T10:51:22;10.43;;;3.00;;
9128;SDS011;4599;50.906;6.786;2023-04-24T10:55:39;8.33;;;3.63;;
9128;SDS011;4599;50.906;6.786;2023-04-24T10:59:42;10.07;;;3.40;;
9128;SDS011;4599;50.906;6.786;2023-04-24T11:03:44;9.00;;;3.53;;
9128;SDS011;4599;50.906;6.786;2023-04-24T11:08:12;8.40;;;3.97;;
9128;SDS011;4599;50.906;6.786;2023-04-24T11:12:14;5.60;;;3.70;;
9128;SDS011;4599;50.906;6.786;2023-04-24T11:16:20;7.57;;;3.37;;
9128;SDS011;4599;50.906;6.786;2023-04-24T11:20:23;8.23;;;4.03;;
9128;SDS011;4599;50.906;6.786;2023-04-24T11:24:37;7.93;;;3.90;;
9128;SDS011;4599;50.906;6.786;2023-04-24T11:28:46;7.23;;;3.70;;
9128;SDS011;4599;50.906;6.786;2023-04-24T11:32:48;11.63;;;4.13;;
9128;SDS011;4599;50.906;6.786;2023-04-24T11:36:52;8.57;;;4.30;;
9128;SDS011;4599;50.906;6.786;2023-04-24T11:40:56;6.77;;;3.90;;
9128;SDS011;4599;50.906;6.786;2023-04-24T11:44:57;7.70;;;3.27;;
9128;SDS011;4599;50.906;6.786;2023-04-24T11:48:59;6.30;;;3.60;;
9128;SDS011;4599;50.906;6.786;2023-04-24T11:53:01;6.43;;;3.00;;
9128;SDS011;4599;50.906;6.786;2023-04-24T11:57:05;6.67;;;3.50;;
9128;SDS011;4599;50.906;6.786;2023-04-24T12:01:08;7.93;;;3.53;;
9128;SDS011;4599;50.906;6.786;2023-04-24T12:05:09;8.27;;;3.80;;
9128;SDS011;4599;50.906;6.786;2023-04-24T12:09:21;9.53;;;3.43;;
9128;SDS011;4599;50.906;6.786;2023-04-24T12:13:23;8.87;;;3.80;;
9128;SDS011;4599;50.906;6.786;2023-04-24T12:17:26;8.37;;;3.50;;
9128;SDS011;4599;50.906;6.786;2023-04-24T12:21:30;11.93;;;3.50;;
9128;SDS011;4599;50.906;6.786;2023-04-24T12:25:32;11.87;;;4.00;;
9128;SDS011;4599;50.906;6.786;2023-04-24T12:29:35;8.17;;;4.10;;
9128;SDS011;4599;50.906;6.786;2023-04-24T12:33:37;9.03;;;3.33;;
9128;SDS011;4599;50.906;6.786;2023-04-24T12:37:41;8.03;;;3.23;;
9128;SDS011;4599;50.906;6.786;2023-04-24T12:41:50;10.33;;;3.70;;
9128;SDS011;4599;50.906;6.786;2023-04-24T12:45:57;8.97;;;3.43;;
9128;SDS011;4599;50.906;6.786;2023-04-24T12:49:58;7.53;;;3.30;;
9128;SDS011;4599;50.906;6.786;2023-04-24T12:54:00;14.10;;;3.60;;
9128;SDS011;4599;50.906;6.786;2023-04-24T12:58:01;8.07;;;3.47;;
9128;SDS011;4599;50.906;6.786;2023-04-24T13:02:04;7.30;;;3.40;;
9128;SDS011;4599;50.906;6.786;2023-04-24T13:06:06;6.30;;;3.10;;
9128;SDS011;4599;50.906;6.786;2023-04-24T13:10:08;7.77;;;3.60;;
9128;SDS011;4599;50.906;6.786;2023-04-24T13:14:10;8.13;;;3.70;;
9128;SDS011;4599;50.906;6.786;2023-04-24T13:18:12;5.40;;;3.30;;
9128;SDS011;4599;50.906;6.786;2023-04-24T13:22:14;7.97;;;3.87;;
9128;SDS011;4599;50.906;6.786;2023-04-24T13:26:15;7.27;;;3.60;;
9128;SDS011;4599;50.906;6.786;2023-04-24T13:30:17;6.97;;;3.30;;
9128;SDS011;4599;50.906;6.786;2023-04-24T13:34:20;6.77;;;3.87;;
9128;SDS011;4599;50.906;6.786;2023-04-24T13:38:21;9.07;;;4.07;;
9128;SDS011;4599;50.906;6.786;2023-04-24T13:42:23;7.57;;;3.97;;
9128;SDS011;4599;50.906;6.786;2023-04-24T13:46:24;7.23;;;3.80;;
9128;SDS011;4599;50.906;6.786;2023-04-24T13:50:27;7.57;;;3.67;;
9128;SDS011;4599;50.906;6.786;2023-04-24T13:54:29;7.37;;;3.53;;
9128;SDS011;4599;50.906;6.786;2023-04-24T13:58:30;5.87;;;3.30;;
9128;SDS011;4599;50.906;6.786;2023-04-24T14:02:32;6.57;;;3.70;;
9128;SDS011;4599;50.906;6.786;2023-04-24T14:06:35;7.97;;;3.57;;
9128;SDS011;4599;50.906;6.786;2023-04-24T14:10:36;7.23;;;3.37;;
9128;SDS011;4599;50.906;6.786;2023-04-24T14:14:38;8.93;;;3.23;;
9128;SDS011;4599;50.906;6.786;2023-04-24T14:18:39;8.17;;;3.10;;
9128;SDS011;4599;50.906;6.786;2023-04-24T14:22:42;11.27;;;3.60;;
9128;SDS011;4599;50.906;6.786;2023-04-24T14:26:44;5.90;;;3.10;;
9128;SDS011;4599;50.906;6.786;2023-04-24T14:30:45;5.80;;;3.30;;
9128;SDS011;4599;50.906;6.786;2023-04-24T14:34:47;5.87;;;3.10;;
9128;SDS011;4599;50.906;6.786;2023-04-24T14:38:50;6.87;;;3.30;;
9128;SDS011;4599;50.906;6.786;2023-04-24T14:42:51;8.00;;;3.20;;
9128;SDS011;4599;50.906;6.786;2023-04-24T14:46:53;7.40;;;3.40;;
9128;SDS011;4599;50.906;6.786;2023-04-24T14:50:54;6.17;;;3.53;;
9128;SDS011;4599;50.906;6.786;2023-04-24T14:54:57;6.00;;;3.43;;
9128;SDS011;4599;50.906;6.786;2023-04-24T14:58:59;6.67;;;3.50;;
9128;SDS011;4599;50.906;6.786;2023-04-24T15:03:00;4.83;;;3.00;;
9128;SDS011;4599;50.906;6.786;2023-04-24T15:07:02;6.63;;;3.53;;
9128;SDS011;4599;50.906;6.786;2023-04-24T15:11:06;5.83;;;3.40;;
9128;SDS011;4599;50.906;6.786;2023-04-24T15:15:08;6.30;;;3.43;;
9128;SDS011;4599;50.906;6.786;2023-04-24T15:19:10;5.73;;;3.23;;
9128;SDS011;4599;50.906;6.786;2023-04-24T15:23:11;6.57;;;3.50;;
9128;SDS011;4599;50.906;6.786;2023-04-24T15:27:14;5.33;;;3.30;;
9128;SDS011;4599;50.906;6.786;2023-04-24T15:31:16;9.03;;;3.10;;
9128;SDS011;4599;50.906;6.786;2023-04-24T15:35:17;8.03;;;3.43;;
9128;SDS011;4599;50.906;6.786;2023-04-24T15:39:20;8.70;;;3.03;;
9128;SDS011;4599;50.906;6.786;2023-04-24T15:43:24;9.43;;;3.20;;
9128;SDS011;4599;50.906;6.786;2023-04-24T15:47:26;5.30;;;3.00;;
9128;SDS011;4599;50.906;6.786;2023-04-24T15:51:27;5.83;;;3.53;;
9128;SDS011;4599;50.906;6.786;2023-04-24T15:55:29;7.50;;;3.33;;
9128;SDS011;4599;50.906;6.786;2023-04-24T15:59:32;6.70;;;3.37;;
9128;SDS011;4599;50.906;6.786;2023-04-24T16:03:33;7.33;;;3.20;;
9128;SDS011;4599;50.906;6.786;2023-04-24T16:07:36;5.97;;;2.93;;
9128;SDS011;4599;50.906;6.786;2023-04-24T16:11:39;5.80;;;2.90;;
9128;SDS011;4599;50.906;6.786;2023-04-24T16:15:41;5.70;;;3.00;;
9128;SDS011;4599;50.906;6.786;2023-04-24T16:19:43;3.67;;;2.50;;
9128;SDS011;4599;50.906;6.786;2023-04-24T16:23:44;5.17;;;2.60;;
9128;SDS011;4599;50.906;6.786;2023-04-24T16:27:46;4.00;;;2.37;;
9128;SDS011;4599;50.906;6.786;2023-04-24T16:31:50;4.83;;;2.47;;
9128;SDS011;4599;50.906;6.786;2023-04-24T16:35:51;7.00;;;2.87;;
9128;SDS011;4599;50.906;6.786;2023-04-24T16:39:53;7.37;;;2.77;;
9128;SDS011;4599;50.906;6.786;2023-04-24T16:43:55;6.47;;;2.37;;
9128;SDS011;4599;50.906;6.786;2023-04-24T16:47:57;5.00;;;2.33;;
9128;SDS011;4599;50.906;6.786;2023-04-24T16:51:59;5.73;;;2.33;;
9128;SDS011;4599;50.906;6.786;2023-04-24T16:56:01;4.77;;;2.17;;
9128;SDS011;4599;50.906;6.786;2023-04-24T17:00:02;3.87;;;2.43;;
9128;SDS011;4599;50.906;6.786;2023-04-24T17:04:06;7.60;;;2.43;;
9128;SDS011;4599;50.906;6.786;2023-04-24T17:08:07;5.73;;;2.50;;
9128;SDS011;4599;50.906;6.786;2023-04-24T17:12:09;3.77;;;2.10;;
9128;SDS011;4599;50.906;6.786;2023-04-24T17:16:10;2.80;;;2.07;;
9128;SDS011;4599;50.906;6.786;2023-04-24T17:20:13;3.53;;;1.80;;
9128;SDS011;4599;50.906;6.786;2023-04-24T17:24:23;5.37;;;2.03;;
9128;SDS011;4599;50.906;6.786;2023-04-24T17:28:25;5.47;;;2.50;;
9128;SDS011;4599;50.906;6.786;2023-04-24T17:32:28;5.53;;;2.10;;
9128;SDS011;4599;50.906;6.786;2023-04-24T17:36:31;4.23;;;2.20;;
9128;SDS011;4599;50.906;6.786;2023-04-24T17:40:32;4.47;;;1.90;;
9128;SDS011;4599;50.906;6.786;2023-04-24T17:44:34;4.07;;;1.90;;
9128;SDS011;4599;50.906;6.786;2023-04-24T17:48:35;2.43;;;1.80;;
9128;SDS011;4599;50.906;6.786;2023-04-24T17:52:38;4.10;;;1.83;;
9128;SDS011;4599;50.906;6.786;2023-04-24T17:56:39;3.63;;;1.73;;
9128;SDS011;4599;50.906;6.786;2023-04-24T18:00:41;5.47;;;2.03;;
9128;SDS011;4599;50.906;6.786;2023-04-24T18:04:43;5.73;;;1.80;;
9128;SDS011;4599;50.906;6.786;2023-04-24T18:08:46;4.47;;;1.80;;
9128;SDS011;4599;50.906;6.786;2023-04-24T18:12:48;4.23;;;1.70;;
9128;SDS011;4599;50.906;6.786;2023-04-24T18:16:49;7.63;;;1.93;;
9128;SDS011;4599;50.906;6.786;2023-04-24T18:20:51;5.00;;;1.87;;
9128;SDS011;4599;50.906;6.786;2023-04-24T18:24:53;2.27;;;1.60;;
9128;SDS011;4599;50.906;6.786;2023-04-24T18:28:55;3.43;;;1.80;;
9128;SDS011;4599;50.906;6.786;2023-04-24T18:32:57;4.00;;;1.63;;
9128;SDS011;4599;50.906;6.786;2023-04-24T18:36:58;2.13;;;1.50;;
9128;SDS011;4599;50.906;6.786;2023-04-24T18:41:01;5.23;;;1.70;;
9128;SDS011;4599;50.906;6.786;2023-04-24T18:45:03;3.93;;;1.77;;
9128;SDS011;4599;50.906;6.786;2023-04-24T18:49:05;2.63;;;1.80;;
9128;SDS011;4599;50.906;6.786;2023-04-24T18:53:06;2.93;;;1.60;;
9128;SDS011;4599;50.906;6.786;2023-04-24T18:57:10;4.90;;;1.60;;
9128;SDS011;4599;50.906;6.786;2023-04-24T19:01:11;5.30;;;2.00;;
9128;SDS011;4599;50.906;6.786;2023-04-24T19:05:13;4.33;;;1.97;;
9128;SDS011;4599;50.906;6.786;2023-04-24T19:09:14;4.87;;;1.87;;
9128;SDS011;4599;50.906;6.786;2023-04-24T19:13:17;4.37;;;2.00;;
9128;SDS011;4599;50.906;6.786;2023-04-24T19:17:19;4.97;;;2.27;;
9128;SDS011;4599;50.906;6.786;2023-04-24T19:21:20;2.93;;;1.90;;
9128;SDS011;4599;50.906;6.786;2023-04-24T19:25:22;3.97;;;1.90;;
9128;SDS011;4599;50.906;6.786;2023-04-24T19:29:25;4.77;;;1.90;;
9128;SDS011;4599;50.906;6.786;2023-04-24T19:33:26;6.07;;;2.30;;
9128;SDS011;4599;50.906;6.786;2023-04-24T19:37:28;4.30;;;2.03;;
9128;SDS011;4599;50.906;6.786;2023-04-24T19:41:29;3.80;;;2.03;;
9128;SDS011;4599;50.906;6.786;2023-04-24T19:45:32;7.33;;;2.00;;
9128;SDS011;4599;50.906;6.786;2023-04-24T19:49:34;5.50;;;2.00;;
9128;SDS011;4599;50.906;6.786;2023-04-24T19:53:35;4.93;;;1.93;;
9128;SDS011;4599;50.906;6.786;2023-04-24T19:57:37;3.70;;;2.10;;
9128;SDS011;4599;50.906;6.786;2023-04-24T20:01:40;6.50;;;2.00;;
9128;SDS011;4599;50.906;6.786;2023-04-24T20:05:42;5.93;;;2.30;;
9128;SDS011;4599;50.906;6.786;2023-04-24T20:09:43;3.80;;;2.10;;
9128;SDS011;4599;50.906;6.786;2023-04-24T20:13:45;4.43;;;2.37;;
9128;SDS011;4599;50.906;6.786;2023-04-24T20:17:47;4.97;;;2.10;;
9128;SDS011;4599;50.906;6.786;2023-04-24T20:21:49;5.97;;;2.50;;
9128;SDS011;4599;50.906;6.786;2023-04-24T20:25:51;5.93;;;2.30;;
9128;SDS011;4599;50.906;6.786;2023-04-24T20:29:52;6.50;;;2.73;;
9128;SDS011;4599;50.906;6.786;2023-04-24T20:33:55;4.67;;;2.10;;
9128;SDS011;4599;50.906;6.786;2023-04-24T20:37:57;5.43;;;2.50;;
9128;SDS011;4599;50.906;6.786;2023-04-24T20:41:58;7.20;;;2.20;;
9128;SDS011;4599;50.906;6.786;2023-04-24T20:46:00;6.20;;;2.60;;
9128;SDS011;4599;50.906;6.786;2023-04-24T20:50:03;3.70;;;2.10;;
9128;SDS011;4599;50.906;6.786;2023-04-24T20:54:06;6.30;;;2.50;;
9128;SDS011;4599;50.906;6.786;2023-04-24T20:58:08;5.07;;;2.80;;
9128;SDS011;4599;50.906;6.786;2023-04-24T21:02:11;4.83;;;2.70;;
9128;SDS011;4599;50.906;6.786;2023-04-24T21:06:14;4.10;;;2.50;;
9128;SDS011;4599;50.906;6.786;2023-04-24T21:10:15;6.73;;;2.70;;
9128;SDS011;4599;50.906;6.786;2023-04-24T21:14:17;4.83;;;2.70;;
9128;SDS011;4599;50.906;6.786;2023-04-24T21:18:19;6.63;;;2.70;;
9128;SDS011;4599;50.906;6.786;2023-04-24T21:22:21;8.40;;;2.97;;
9128;SDS011;4599;50.906;6.786;2023-04-24T21:26:23;8.83;;;3.03;;
9128;SDS011;4599;50.906;6.786;2023-04-24T21:30:24;6.97;;;2.67;;
9128;SDS011;4599;50.906;6.786;2023-04-24T21:34:26;4.83;;;2.77;;
9128;SDS011;4599;50.906;6.786;2023-04-24T21:38:28;6.17;;;2.97;;
9128;SDS011;4599;50.906;6.786;2023-04-24T21:42:30;7.37;;;3.10;;
9128;SDS011;4599;50.906;6.786;2023-04-24T21:46:32;5.37;;;2.80;;
9128;SDS011;4599;50.906;6.786;2023-04-24T21:50:33;8.73;;;2.90;;
9128;SDS011;4599;50.906;6.786;2023-04-24T21:54:36;7.60;;;3.03;;
9128;SDS011;4599;50.906;6.786;2023-04-24T21:58:37;6.17;;;2.50;;
9128;SDS011;4599;50.906;6.786;2023-04-24T22:02:39;5.03;;;2.77;;
9128;SDS011;4599;50.906;6.786;2023-04-24T22:06:41;5.63;;;3.30;;
9128;SDS011;4599;50.906;6.786;2023-04-24T22:10:43;6.00;;;2.90;;
9128;SDS011;4599;50.906;6.786;2023-04-24T22:14:45;6.67;;;3.10;;
9128;SDS011;4599;50.906;6.786;2023-04-24T22:18:47;10.40;;;3.77;;
9128;SDS011;4599;50.906;6.786;2023-04-24T22:22:48;7.77;;;3.37;;
9128;SDS011;4599;50.906;6.786;2023-04-24T22:26:51;6.53;;;3.50;;
9128;SDS011;4599;50.906;6.786;2023-04-24T22:30:52;11.03;;;3.50;;
9128;SDS011;4599;50.906;6.786;2023-04-24T22:34:54;8.13;;;3.53;;
9128;SDS011;4599;50.906;6.786;2023-04-24T22:38:55;10.80;;;3.90;;
9128;SDS011;4599;50.906;6.786;2023-04-24T22:42:58;9.33;;;3.43;;
9128;SDS011;4599;50.906;6.786;2023-04-24T22:46:59;7.93;;;3.57;;
9128;SDS011;4599;50.906;6.786;2023-04-24T22:51:01;12.10;;;4.17;;
9128;SDS011;4599;50.906;6.786;2023-04-24T22:55:03;9.60;;;3.80;;
9128;SDS011;4599;50.906;6.786;2023-04-24T22:59:06;11.17;;;3.83;;
9128;SDS011;4599;50.906;6.786;2023-04-24T23:03:08;7.63;;;3.20;;
9128;SDS011;4599;50.906;6.786;2023-04-24T23:07:10;12.10;;;3.70;;
9128;SDS011;4599;50.906;6.786;2023-04-24T23:11:11;8.50;;;3.60;;
9128;SDS011;4599;50.906;6.786;2023-04-24T23:15:14;8.07;;;3.37;;
9128;SDS011;4599;50.906;6.786;2023-04-24T23:19:15;8.23;;;3.47;;
9128;SDS011;4599;50.906;6.786;2023-04-24T23:23:17;9.33;;;3.70;;
9128;SDS011;4599;50.906;6.786;2023-04-24T23:27:19;9.83;;;3.10;;
9128;SDS011;4599;50.906;6.786;2023-04-24T23:31:22;7.53;;;3.50;;
9128;SDS011;4599;50.906;6.786;2023-04-24T23:35:24;10.60;;;3.50;;
9128;SDS011;4599;50.906;6.786;2023-04-24T23:39:25;10.03;;;3.70;;
9128;SDS011;4599;50.906;6.786;2023-04-24T23:43:27;10.27;;;3.60;;
9128;SDS011;4599;50.906;6.786;2023-04-24T23:47:30;9.93;;;3.30;;
9128;SDS011;4599;50.906;6.786;2023-04-24T23:51:31;14.17;;;4.03;;
9128;SDS011;4599;50.906;6.786;2023-04-24T23:55:34;8.80;;;3.50;;
9128;SDS011;4599;50.906;6.786;2023-04-24T23:59:35;8.70;;;3.27;;
